Time;durP1;ratioP1;P1;durP2;ratioP2;P2;SDS_P1;SDS_P2;PMS_P1;PMS_P2;Temp;Humidity;BMP_temperature;BMP_pressure;BME280_temperature;BME280_humidity;BME280_pressure;Samples;Min_cycle;Max_cycle;Signal;HPM_P1;HPM_P2
2021/05/23 00:01:45;;;;;;;5.90;3.90;;;14.50;99.90;;;;;;6286781;28;20477;-61
2021/05/23 00:04:47;;;;;;;4.10;3.43;;;14.50;99.90;;;;;;6293138;28;20466;-61
2021/05/23 00:07:54;;;;;;;4.67;3.40;;;14.40;99.90;;;;;;6290451;28;20469;-61
2021/05/23 00:10:59;;;;;;;5.20;3.50;;;14.50;99.90;;;;;;6284377;28;20956;-61
2021/05/23 00:14:03;;;;;;;5.33;4.43;;;14.50;99.90;;;;;;6284663;28;20478;-61
2021/05/23 00:17:06;;;;;;;5.63;4.50;;;14.50;99.90;;;;;;6292402;28;20528;-61
2021/05/23 00:20:11;;;;;;;3.67;3.10;;;14.40;99.90;;;;;;6291783;28;20501;-62
2021/05/23 00:23:13;;;;;;;5.83;3.97;;;14.40;99.90;;;;;;6279901;28;20465;-61
2021/05/23 00:26:16;;;;;;;4.40;3.87;;;14.50;99.90;;;;;;6305618;28;20450;-61
2021/05/23 00:29:20;;;;;;;3.73;3.43;;;14.40;99.90;;;;;;6279574;28;20933;-61
2021/05/23 00:32:23;;;;;;;4.80;3.70;;;14.50;99.90;;;;;;6277590;28;20450;-61
2021/05/23 00:35:26;;;;;;;3.43;3.23;;;14.40;99.90;;;;;;6299999;28;20453;-61
2021/05/23 00:38:29;;;;;;;3.07;2.83;;;14.40;99.90;;;;;;6293955;28;20477;-61
2021/05/23 00:41:32;;;;;;;4.93;3.60;;;14.40;99.90;;;;;;6298665;28;20465;-61
2021/05/23 00:44:36;;;;;;;3.90;3.50;;;14.40;99.90;;;;;;6294856;28;20466;-61
2021/05/23 00:47:39;;;;;;;4.20;3.10;;;14.40;99.90;;;;;;6282331;28;20468;-61
2021/05/23 00:50:42;;;;;;;3.93;3.13;;;14.40;99.90;;;;;;6296072;28;20473;-61
2021/05/23 00:53:44;;;;;;;5.00;3.20;;;14.40;99.90;;;;;;6287716;28;20461;-61
2021/05/23 00:56:47;;;;;;;6.47;3.40;;;14.40;99.90;;;;;;6291078;28;20476;-61
2021/05/23 00:59:51;;;;;;;4.17;3.60;;;14.40;99.90;;;;;;6285792;28;20466;-61
2021/05/23 01:03:00;;;;;;;3.80;3.43;;;14.40;99.90;;;;;;6291622;28;20465;-61
2021/05/23 01:06:05;;;;;;;5.00;3.03;;;14.40;99.90;;;;;;6268568;28;20853;-61
2021/05/23 01:09:09;;;;;;;3.70;3.40;;;14.40;99.90;;;;;;6270591;28;20473;-61
2021/05/23 01:12:36;;;;;;;2.80;2.60;;;14.40;99.90;;;;;;6290887;28;20484;-61
2021/05/23 01:15:43;;;;;;;4.23;3.10;;;14.40;99.90;;;;;;6270758;28;20520;-60
2021/05/23 01:18:50;;;;;;;3.57;3.27;;;14.40;99.90;;;;;;6270028;28;20478;-61
2021/05/23 01:21:58;;;;;;;3.27;3.00;;;14.30;99.90;;;;;;6272077;28;20493;-61
2021/05/23 01:25:06;;;;;;;3.60;3.30;;;14.30;99.90;;;;;;6274023;28;20471;-61
2021/05/23 01:28:09;;;;;;;7.30;3.47;;;14.30;99.90;;;;;;6274974;28;20501;-61
2021/05/23 01:31:15;;;;;;;4.43;3.20;;;14.30;99.90;;;;;;6274487;28;20824;-61
2021/05/23 01:34:21;;;;;;;4.17;3.80;;;14.30;99.90;;;;;;6274811;28;20470;-61
2021/05/23 01:37:25;;;;;;;3.87;3.57;;;14.30;99.90;;;;;;6274406;28;20482;-61
2021/05/23 01:40:33;;;;;;;5.80;4.67;;;14.20;99.90;;;;;;6293758;28;20477;-61
2021/05/23 01:43:36;;;;;;;4.47;4.07;;;14.20;99.90;;;;;;6299500;28;20465;-61
2021/05/23 01:46:40;;;;;;;4.33;3.73;;;14.20;99.90;;;;;;6301209;28;20461;-62
2021/05/23 01:49:43;;;;;;;5.53;3.60;;;14.20;99.90;;;;;;6324447;28;20472;-62
2021/05/23 01:52:51;;;;;;;4.20;3.53;;;14.20;99.90;;;;;;6324332;28;20468;-61
2021/05/23 01:55:54;;;;;;;3.43;3.13;;;14.00;99.90;;;;;;6324583;28;20472;-62
2021/05/23 01:58:57;;;;;;;3.70;3.40;;;14.00;99.90;;;;;;6323103;28;20472;-63
2021/05/23 02:02:00;;;;;;;3.53;3.20;;;13.90;99.90;;;;;;6323895;28;20468;-62
2021/05/23 02:05:05;;;;;;;4.00;3.60;;;13.90;99.90;;;;;;6324032;28;20472;-62
2021/05/23 02:08:08;;;;;;;6.30;3.87;;;14.00;99.90;;;;;;6324579;28;20471;-62
2021/05/23 02:11:12;;;;;;;3.77;2.90;;;14.00;99.90;;;;;;6319024;28;20613;-62
2021/05/23 02:14:15;;;;;;;3.73;3.30;;;14.10;99.90;;;;;;6321399;28;20456;-62
2021/05/23 02:17:18;;;;;;;7.10;6.10;;;14.00;99.90;;;;;;6322870;28;20480;-62
2021/05/23 02:20:23;;;;;;;5.40;4.00;;;14.00;99.90;;;;;;6298777;28;20944;-61
2021/05/23 02:23:26;;;;;;;3.97;3.57;;;14.10;99.90;;;;;;6299082;28;20441;-61
2021/05/23 02:26:30;;;;;;;4.60;3.47;;;14.00;99.90;;;;;;6299277;28;20445;-62
2021/05/23 02:29:33;;;;;;;4.77;3.57;;;14.00;99.90;;;;;;6299340;28;20468;-62
2021/05/23 02:32:36;;;;;;;5.73;3.60;;;14.00;99.90;;;;;;6298606;28;20457;-62
2021/05/23 02:35:41;;;;;;;4.50;3.40;;;14.00;99.90;;;;;;6299385;28;20473;-61
2021/05/23 02:38:44;;;;;;;5.80;3.30;;;14.00;99.90;;;;;;6298807;28;20475;-61
2021/05/23 02:41:48;;;;;;;4.73;4.33;;;14.00;99.90;;;;;;6298919;28;20469;-62
2021/05/23 02:44:50;;;;;;;4.10;3.80;;;14.00;99.90;;;;;;6298491;28;20472;-60
2021/05/23 02:47:54;;;;;;;4.00;3.20;;;13.90;99.90;;;;;;6311127;28;20471;-60
2021/05/23 02:50:58;;;;;;;4.40;3.93;;;13.90;99.90;;;;;;6323727;28;20479;-60
2021/05/23 02:54:01;;;;;;;3.70;3.13;;;14.00;99.90;;;;;;6323823;28;20472;-60
2021/05/23 02:57:06;;;;;;;5.37;4.00;;;13.90;99.90;;;;;;6323467;28;20479;-60
2021/05/23 03:00:11;;;;;;;4.30;3.67;;;13.90;99.90;;;;;;6323706;28;20476;-60
2021/05/23 03:03:14;;;;;;;3.80;3.50;;;13.90;99.90;;;;;;6323319;28;20468;-60
2021/05/23 03:06:17;;;;;;;4.20;3.80;;;13.80;99.90;;;;;;6323822;28;20461;-61
2021/05/23 03:09:20;;;;;;;3.83;3.43;;;13.80;99.90;;;;;;6325052;28;20460;-60
2021/05/23 03:12:24;;;;;;;3.93;3.63;;;13.80;99.90;;;;;;6328102;28;20472;-60
2021/05/23 03:15:29;;;;;;;4.47;4.07;;;13.80;99.90;;;;;;6313441;28;20964;-60
2021/05/23 03:18:32;;;;;;;3.47;3.27;;;13.60;99.90;;;;;;6327408;28;20982;-60
2021/05/23 03:21:34;;;;;;;4.70;4.10;;;13.60;99.90;;;;;;6327789;28;20813;-60
2021/05/23 03:24:37;;;;;;;4.43;3.70;;;13.60;99.90;;;;;;6327597;28;20476;-60
2021/05/23 03:27:41;;;;;;;3.90;3.60;;;13.70;99.90;;;;;;6327740;28;20468;-60
2021/05/23 03:30:44;;;;;;;4.00;3.70;;;13.80;99.90;;;;;;6327285;28;20476;-60
2021/05/23 03:33:47;;;;;;;3.63;3.27;;;13.70;99.90;;;;;;6327557;28;20479;-61
2021/05/23 03:36:50;;;;;;;3.80;2.80;;;13.70;99.90;;;;;;6326973;28;20471;-60
2021/05/23 03:39:52;;;;;;;3.73;3.43;;;13.80;99.90;;;;;;6327519;28;20483;-60
2021/05/23 03:42:56;;;;;;;4.53;3.70;;;13.80;99.90;;;;;;6327113;28;20475;-61
2021/05/23 03:45:59;;;;;;;3.50;3.20;;;13.70;99.90;;;;;;6306720;28;20472;-60
2021/05/23 03:49:02;;;;;;;3.63;3.33;;;13.80;99.90;;;;;;6324002;28;20482;-61
2021/05/23 03:52:05;;;;;;;3.90;3.60;;;13.80;99.90;;;;;;6326885;28;20484;-60
2021/05/23 03:55:09;;;;;;;3.50;3.20;;;13.80;99.90;;;;;;6327234;28;20464;-60
2021/05/23 03:58:13;;;;;;;4.07;3.67;;;13.70;99.90;;;;;;6327007;28;20468;-60
2021/05/23 04:01:15;;;;;;;4.27;3.97;;;13.70;99.90;;;;;;6326716;28;21000;-60
2021/05/23 04:04:20;;;;;;;4.40;3.70;;;13.60;99.90;;;;;;6326845;28;20479;-61
2021/05/23 04:07:26;;;;;;;3.60;3.30;;;13.60;99.90;;;;;;6326791;28;20986;-67
2021/05/23 04:10:33;;;;;;;3.60;3.30;;;13.60;99.90;;;;;;6326322;28;20479;-68
2021/05/23 04:13:39;;;;;;;4.10;3.70;;;13.50;99.90;;;;;;6326609;28;20795;-67
2021/05/23 04:16:42;;;;;;;3.33;3.03;;;13.50;99.90;;;;;;6325766;28;20483;-67
2021/05/23 04:19:45;;;;;;;7.60;4.13;;;13.50;99.90;;;;;;6316523;28;20484;-67
2021/05/23 04:22:49;;;;;;;4.10;3.70;;;13.50;99.90;;;;;;6325370;28;20792;-67
2021/05/23 04:25:52;;;;;;;5.23;3.80;;;13.60;99.90;;;;;;6326360;28;20979;-67
2021/05/23 04:28:56;;;;;;;4.87;4.37;;;13.70;99.90;;;;;;6325199;28;20476;-67
2021/05/23 04:31:59;;;;;;;4.10;3.40;;;13.80;99.90;;;;;;6325971;28;20479;-67
2021/05/23 04:35:02;;;;;;;4.20;3.43;;;13.80;99.90;;;;;;6325680;28;20479;-67
2021/05/23 04:38:05;;;;;;;6.17;4.40;;;13.90;99.90;;;;;;6326118;28;20563;-67
2021/05/23 04:41:11;;;;;;;3.83;3.33;;;13.90;99.90;;;;;;6326033;28;20480;-67
2021/05/23 04:44:14;;;;;;;4.03;3.70;;;13.90;99.90;;;;;;6319517;28;20468;-67
2021/05/23 04:47:17;;;;;;;3.93;3.50;;;13.80;99.90;;;;;;6307812;28;20436;-65
2021/05/23 04:50:20;;;;;;;4.67;3.77;;;13.80;99.90;;;;;;6325552;28;20479;-67
2021/05/23 04:53:23;;;;;;;4.20;3.40;;;13.80;99.90;;;;;;6325565;28;20778;-68
2021/05/23 04:56:26;;;;;;;7.90;3.73;;;13.80;99.90;;;;;;6325563;28;20515;-68
2021/05/23 04:59:33;;;;;;;4.63;3.60;;;13.70;99.90;;;;;;6325157;28;20577;-68
2021/05/23 05:02:36;;;;;;;3.67;3.37;;;13.60;99.90;;;;;;6325406;28;20471;-68
2021/05/23 05:05:39;;;;;;;4.00;3.60;;;13.50;99.90;;;;;;6325672;28;20478;-67
2021/05/23 05:08:41;;;;;;;3.70;3.40;;;13.60;99.90;;;;;;6325315;28;20475;-67
2021/05/23 05:11:44;;;;;;;3.90;3.60;;;13.60;99.90;;;;;;6325376;28;20468;-68
2021/05/23 05:14:48;;;;;;;4.07;3.77;;;13.70;99.90;;;;;;6325114;28;20467;-68
2021/05/23 05:17:51;;;;;;;6.30;3.60;;;13.80;99.90;;;;;;6324811;28;20960;-68
2021/05/23 05:20:54;;;;;;;5.10;2.90;;;13.80;99.90;;;;;;6325263;28;20468;-69
2021/05/23 05:23:57;;;;;;;3.60;3.30;;;13.90;99.90;;;;;;6324907;28;20467;-68
2021/05/23 05:27:00;;;;;;;3.80;3.50;;;13.90;99.90;;;;;;6325179;28;20464;-69
2021/05/23 05:30:05;;;;;;;3.57;3.23;;;13.90;99.90;;;;;;6324310;28;20810;-68
2021/05/23 05:33:07;;;;;;;3.43;3.13;;;14.00;99.90;;;;;;6324831;28;20475;-69
2021/05/23 05:36:10;;;;;;;3.33;3.03;;;14.10;99.90;;;;;;6324473;28;20807;-68
2021/05/23 05:39:13;;;;;;;4.43;3.57;;;14.00;99.90;;;;;;6324692;28;20486;-68
2021/05/23 05:42:16;;;;;;;3.33;3.03;;;14.10;99.90;;;;;;6324608;28;20476;-68
2021/05/23 05:45:19;;;;;;;3.03;2.83;;;14.20;99.90;;;;;;6309550;28;20476;-68
2021/05/23 05:48:22;;;;;;;3.50;3.30;;;14.30;99.90;;;;;;6315227;28;20963;-68
2021/05/23 05:51:25;;;;;;;3.17;2.97;;;14.50;99.90;;;;;;6321653;28;20721;-68
2021/05/23 05:54:28;;;;;;;3.47;3.13;;;14.60;99.90;;;;;;6321717;28;20464;-66
2021/05/23 05:57:31;;;;;;;3.33;3.13;;;14.70;99.90;;;;;;6324528;28;20468;-68
2021/05/23 06:00:35;;;;;;;3.50;3.20;;;14.80;99.90;;;;;;6324151;28;20469;-67
2021/05/23 06:03:38;;;;;;;3.40;3.10;;;15.10;99.90;;;;;;6324007;28;20862;-68
2021/05/23 06:06:41;;;;;;;4.90;4.20;;;15.30;99.90;;;;;;6324265;28;20474;-67
2021/05/23 06:09:43;;;;;;;2.90;2.67;;;15.50;99.90;;;;;;6323716;28;20471;-68
2021/05/23 06:12:46;;;;;;;4.77;3.53;;;15.70;99.90;;;;;;6324303;28;20464;-68
2021/05/23 06:15:50;;;;;;;3.17;2.90;;;15.80;99.90;;;;;;6323659;28;20931;-68
2021/05/23 06:18:53;;;;;;;3.03;2.57;;;15.80;99.90;;;;;;6324029;28;20490;-68
2021/05/23 06:21:56;;;;;;;3.90;2.70;;;15.70;99.90;;;;;;6323544;28;20475;-68
2021/05/23 06:24:58;;;;;;;2.97;2.77;;;15.60;99.90;;;;;;6324004;28;20967;-68
2021/05/23 06:28:01;;;;;;;3.20;2.90;;;15.50;99.90;;;;;;6323737;28;20804;-68
2021/05/23 06:31:05;;;;;;;3.23;3.03;;;15.40;99.90;;;;;;6323964;28;20468;-69
2021/05/23 06:34:08;;;;;;;5.00;3.47;;;15.50;99.90;;;;;;6323852;28;20982;-67
2021/05/23 06:37:11;;;;;;;3.10;2.90;;;15.60;99.90;;;;;;6323205;28;20801;-67
2021/05/23 06:40:14;;;;;;;2.77;2.57;;;15.90;99.90;;;;;;6323531;28;20827;-67
2021/05/23 06:43:17;;;;;;;4.07;3.77;;;16.00;99.90;;;;;;6323730;28;20533;-67
2021/05/23 06:46:21;;;;;;;2.90;2.70;;;15.90;99.90;;;;;;6304482;28;20461;-67
2021/05/23 06:49:23;;;;;;;4.20;2.97;;;15.90;99.90;;;;;;6328163;28;20466;-67
2021/05/23 06:52:26;;;;;;;3.10;2.90;;;15.80;99.90;;;;;;6328482;28;20460;-67
2021/05/23 06:55:29;;;;;;;3.10;2.80;;;15.60;99.90;;;;;;6328245;28;20503;-68
2021/05/23 06:58:32;;;;;;;2.97;2.77;;;15.40;99.90;;;;;;6328400;28;20967;-68
2021/05/23 07:01:35;;;;;;;3.03;2.67;;;15.30;99.90;;;;;;6327789;28;20478;-68
2021/05/23 07:04:38;;;;;;;3.90;3.00;;;15.30;99.90;;;;;;6328541;28;20487;-68
2021/05/23 07:07:41;;;;;;;2.57;2.40;;;15.30;99.90;;;;;;6328035;28;20467;-68
2021/05/23 07:10:44;;;;;;;2.97;2.60;;;15.30;99.90;;;;;;6327983;28;20487;-68
2021/05/23 07:13:47;;;;;;;3.20;2.57;;;15.20;99.90;;;;;;6328123;28;20476;-67
2021/05/23 07:16:50;;;;;;;3.80;3.33;;;15.10;99.90;;;;;;6327621;28;20497;-68
2021/05/23 07:19:53;;;;;;;3.37;2.80;;;15.00;99.90;;;;;;6327241;28;20495;-69
2021/05/23 07:23:00;;;;;;;2.83;2.63;;;14.90;99.90;;;;;;6327451;28;20997;-68
2021/05/23 07:26:02;;;;;;;2.80;2.60;;;14.90;99.90;;;;;;6328020;28;20464;-68
2021/05/23 07:29:06;;;;;;;3.13;2.60;;;14.90;99.90;;;;;;6327332;28;20468;-68
2021/05/23 07:32:10;;;;;;;3.27;3.07;;;14.90;99.90;;;;;;6327487;28;20475;-66
2021/05/23 07:35:13;;;;;;;3.17;2.87;;;15.00;99.90;;;;;;6327552;28;20459;-63
2021/05/23 07:38:16;;;;;;;2.77;2.57;;;15.10;99.90;;;;;;6327336;28;20959;-68
2021/05/23 07:41:19;;;;;;;2.73;2.53;;;15.30;99.90;;;;;;6326501;28;20464;-68
2021/05/23 07:44:21;;;;;;;3.10;2.90;;;15.30;99.90;;;;;;6319949;28;20916;-68
2021/05/23 07:47:25;;;;;;;3.30;3.10;;;15.30;99.90;;;;;;6309865;28;20776;-68
2021/05/23 07:50:28;;;;;;;3.00;2.80;;;15.30;99.90;;;;;;6327066;28;20958;-68
2021/05/23 07:53:31;;;;;;;3.07;2.73;;;15.40;99.90;;;;;;6326942;28;20775;-62
2021/05/23 07:56:34;;;;;;;3.13;2.90;;;15.40;99.90;;;;;;6326531;28;20452;-63
2021/05/23 07:59:37;;;;;;;3.97;3.67;;;15.40;99.90;;;;;;6326434;28;20826;-63
2021/05/23 08:02:41;;;;;;;3.43;2.87;;;15.50;99.90;;;;;;6326650;28;20799;-63
2021/05/23 08:05:43;;;;;;;3.70;3.17;;;15.40;99.90;;;;;;6326720;28;20468;-61
2021/05/23 08:08:46;;;;;;;4.47;4.07;;;15.50;99.90;;;;;;6326348;28;20464;-61
2021/05/23 08:11:49;;;;;;;3.63;3.43;;;15.40;99.90;;;;;;6325613;28;20779;-62
2021/05/23 08:14:55;;;;;;;5.43;3.60;;;15.30;99.90;;;;;;6324663;28;20475;-62
2021/05/23 08:17:59;;;;;;;4.27;3.60;;;15.20;99.90;;;;;;6323978;28;20477;-61
2021/05/23 08:21:03;;;;;;;4.70;3.43;;;15.10;99.90;;;;;;6323974;28;20472;-61
2021/05/23 08:24:08;;;;;;;5.63;5.13;;;15.00;99.90;;;;;;6321012;28;20477;-62
2021/05/23 08:27:11;;;;;;;4.00;3.70;;;15.00;99.90;;;;;;6299722;28;20469;-57
2021/05/23 08:30:15;;;;;;;5.80;3.67;;;14.90;99.90;;;;;;6298811;28;20492;-61
2021/05/23 08:33:18;;;;;;;3.87;3.57;;;14.90;99.90;;;;;;6299680;28;20552;-61
2021/05/23 08:36:21;;;;;;;3.57;3.30;;;15.00;99.90;;;;;;6300271;28;20480;-61
2021/05/23 08:39:24;;;;;;;2.60;2.40;;;15.10;99.90;;;;;;6300566;28;20820;-61
2021/05/23 08:42:27;;;;;;;3.00;2.80;;;15.10;99.90;;;;;;6300515;28;20539;-62
2021/05/23 08:45:30;;;;;;;3.30;3.10;;;15.20;99.90;;;;;;6300352;28;20544;-61
2021/05/23 08:48:34;;;;;;;2.87;2.67;;;15.30;99.90;;;;;;6318163;28;20471;-61
2021/05/23 08:51:38;;;;;;;5.00;3.90;;;15.40;99.90;;;;;;6325391;28;20481;-61
2021/05/23 08:54:41;;;;;;;3.13;2.83;;;15.40;99.90;;;;;;6324850;28;20472;-58
2021/05/23 08:57:45;;;;;;;3.73;2.90;;;15.30;99.90;;;;;;6325486;28;20475;-57
2021/05/23 09:00:48;;;;;;;3.10;2.90;;;15.10;99.90;;;;;;6325191;28;20483;-70
2021/05/23 09:03:58;;;;;;;4.10;2.80;;;15.00;99.90;;;;;;6303858;28;20477;-70
2021/05/23 09:07:01;;;;;;;3.80;2.73;;;14.90;99.90;;;;;;6302278;28;20484;-67
2021/05/23 09:10:05;;;;;;;2.37;2.27;;;14.90;99.90;;;;;;6303935;28;21046;-68
2021/05/23 09:13:09;;;;;;;3.10;2.90;;;14.80;99.90;;;;;;6304769;28;20465;-68
2021/05/23 09:16:13;;;;;;;3.00;2.60;;;14.70;99.90;;;;;;6304172;28;20476;-67
2021/05/23 09:19:17;;;;;;;3.00;2.00;;;14.70;99.90;;;;;;6303646;28;20477;-68
2021/05/23 09:22:23;;;;;;;2.50;1.83;;;14.60;99.90;;;;;;6300377;28;20469;-67
2021/05/23 09:25:31;;;;;;;2.57;2.37;;;14.60;99.90;;;;;;6300092;28;20816;-67
2021/05/23 09:28:33;;;;;;;2.60;2.23;;;14.50;99.90;;;;;;6299661;28;20462;-68
2021/05/23 09:31:37;;;;;;;2.40;2.20;;;14.50;99.90;;;;;;6300203;28;20967;-68
2021/05/23 09:34:41;;;;;;;1.50;1.40;;;14.50;99.90;;;;;;6290191;28;20499;-68
2021/05/23 09:37:44;;;;;;;1.20;1.10;;;14.40;99.90;;;;;;6297741;28;20473;-67
2021/05/23 09:40:48;;;;;;;1.10;0.90;;;14.40;99.90;;;;;;6299399;28;20473;-68
2021/05/23 09:43:51;;;;;;;0.90;0.60;;;14.40;99.90;;;;;;6296965;28;20792;-66
2021/05/23 09:46:55;;;;;;;0.70;0.70;;;14.20;99.90;;;;;;6282575;28;20480;-64
2021/05/23 09:49:59;;;;;;;1.00;0.60;;;14.20;99.90;;;;;;6325207;28;20482;-66
2021/05/23 09:53:02;;;;;;;0.80;0.80;;;14.00;99.90;;;;;;6324608;28;20476;-67
2021/05/23 09:56:07;;;;;;;1.03;0.57;;;14.10;99.90;;;;;;6330836;28;20468;-68
2021/05/23 09:59:19;;;;;;;0.90;0.60;;;14.00;99.90;;;;;;6324620;28;20495;-68
2021/05/23 10:02:22;;;;;;;0.70;0.53;;;14.00;99.90;;;;;;6324674;28;20452;-68
2021/05/23 10:05:46;;;;;;;1.00;0.93;;;14.00;99.90;;;;;;6324229;28;20475;-61
2021/05/23 10:08:49;;;;;;;0.77;0.70;;;14.00;99.90;;;;;;6324121;28;20475;-68
2021/05/23 10:11:51;;;;;;;0.70;0.60;;;14.10;99.90;;;;;;6324008;28;20483;-62
2021/05/23 10:14:54;;;;;;;1.27;0.90;;;13.80;99.90;;;;;;6324162;28;20963;-60
2021/05/23 10:17:57;;;;;;;1.20;0.60;;;13.50;99.90;;;;;;6323723;28;20479;-68
2021/05/23 10:21:01;;;;;;;0.80;0.80;;;13.30;99.90;;;;;;6328081;28;20792;-61
2021/05/23 10:24:05;;;;;;;0.70;0.50;;;13.20;99.90;;;;;;6329541;28;20578;-67
2021/05/23 10:27:34;;;;;;;1.20;0.60;;;13.20;99.90;;;;;;6329443;28;20480;-62
2021/05/23 10:30:47;;;;;;;0.83;0.83;;;13.40;99.90;;;;;;6328863;28;20522;-68
2021/05/23 10:33:51;;;;;;;0.70;0.43;;;13.60;99.90;;;;;;6329255;28;20468;-58
2021/05/23 10:37:01;;;;;;;0.70;0.70;;;14.00;99.90;;;;;;6319272;28;20472;-57
2021/05/23 10:40:15;;;;;;;1.20;0.70;;;14.30;99.90;;;;;;6328679;28;21010;-58
2021/05/23 10:43:23;;;;;;;1.57;0.50;;;14.60;99.90;;;;;;6328388;28;20971;-61
2021/05/23 10:46:26;;;;;;;0.63;0.60;;;15.10;99.90;;;;;;6303810;28;20469;-62
2021/05/23 10:49:29;;;;;;;1.47;0.50;;;15.30;99.90;;;;;;6278191;28;20470;-61
2021/05/23 10:52:35;;;;;;;1.20;0.87;;;15.50;99.90;;;;;;6278533;28;20489;-68
2021/05/23 10:55:48;;;;;;;0.80;0.60;;;15.70;99.90;;;;;;6278513;28;20843;-70
2021/05/23 10:58:53;;;;;;;3.07;0.90;;;15.90;99.80;;;;;;6278384;28;20474;-69
2021/05/23 11:01:56;;;;;;;0.70;0.50;;;15.90;99.50;;;;;;6277962;28;20970;-70
2021/05/23 11:04:59;;;;;;;0.70;0.40;;;16.00;98.30;;;;;;6285408;28;20971;-68
2021/05/23 11:08:05;;;;;;;0.60;0.50;;;16.20;97.70;;;;;;6299364;28;20809;-70
2021/05/23 11:11:19;;;;;;;0.50;0.30;;;16.80;97.10;;;;;;6290743;28;20465;-62
2021/05/23 11:14:23;;;;;;;0.40;0.30;;;17.30;95.30;;;;;;6301521;28;20776;-63
2021/05/23 11:17:26;;;;;;;0.70;0.40;;;17.70;94.70;;;;;;6299293;28;20444;-61
2021/05/23 11:20:30;;;;;;;0.50;0.30;;;17.70;93.60;;;;;;6300087;28;20488;-60
2021/05/23 11:23:44;;;;;;;0.40;0.40;;;17.70;93.40;;;;;;6300109;28;20433;-67
2021/05/23 11:26:47;;;;;;;0.50;0.30;;;17.50;92.80;;;;;;6297629;28;20905;-68
2021/05/23 11:29:52;;;;;;;0.60;0.40;;;17.30;92.60;;;;;;6299405;28;20963;-67
2021/05/23 11:33:04;;;;;;;2.00;0.67;;;17.20;93.40;;;;;;6300094;28;20800;-67
2021/05/23 11:36:18;;;;;;;0.80;0.53;;;17.20;94.00;;;;;;6297774;28;20957;-66
2021/05/23 11:39:21;;;;;;;0.60;0.40;;;17.30;94.00;;;;;;6282665;28;20489;-66
2021/05/23 11:42:24;;;;;;;1.20;0.80;;;17.40;93.70;;;;;;6275206;28;20973;-68
2021/05/23 11:45:27;;;;;;;0.40;0.30;;;17.60;92.50;;;;;;6291556;28;20495;-67
2021/05/23 11:48:32;;;;;;;1.00;0.40;;;17.60;92.00;;;;;;6317594;28;20480;-67
2021/05/23 11:51:35;;;;;;;0.50;0.30;;;17.50;92.10;;;;;;6325775;28;20468;-66
2021/05/23 11:54:39;;;;;;;0.70;0.40;;;17.40;92.40;;;;;;6325275;28;21091;-67
2021/05/23 11:57:42;;;;;;;0.80;0.50;;;17.40;92.20;;;;;;6325443;28;20476;-67
2021/05/23 12:00:45;;;;;;;0.60;0.27;;;17.40;90.80;;;;;;6324869;28;20472;-67
2021/05/23 12:03:56;;;;;;;0.50;0.30;;;17.40;90.60;;;;;;6311954;28;20464;-67
2021/05/23 12:07:00;;;;;;;0.53;0.40;;;17.40;90.00;;;;;;6278059;28;20485;-67
2021/05/23 12:10:05;;;;;;;0.80;0.50;;;17.50;90.80;;;;;;6275245;28;20481;-70
2021/05/23 12:13:08;;;;;;;0.67;0.57;;;17.50;90.70;;;;;;6288559;28;20813;-68
2021/05/23 12:16:13;;;;;;;0.60;0.30;;;17.50;90.30;;;;;;6299985;28;20469;-70
2021/05/23 12:19:16;;;;;;;1.17;0.50;;;17.60;90.20;;;;;;6277423;28;644815;-69
2021/05/23 12:22:21;;;;;;;0.70;0.50;;;17.60;87.40;;;;;;6300692;28;20994;-69
2021/05/23 12:25:25;;;;;;;2.33;0.80;;;17.50;87.20;;;;;;6301197;28;20548;-69
2021/05/23 12:28:35;;;;;;;1.53;0.30;;;17.40;85.10;;;;;;6300363;28;20488;-69
2021/05/23 12:31:38;;;;;;;0.80;0.43;;;17.30;84.10;;;;;;6300778;28;20473;-67
2021/05/23 12:34:42;;;;;;;0.60;0.50;;;17.20;83.00;;;;;;6300367;28;20483;-57
2021/05/23 12:37:53;;;;;;;1.10;0.60;;;17.40;85.60;;;;;;6300780;28;20475;-63
2021/05/23 12:40:58;;;;;;;0.60;0.43;;;17.50;81.50;;;;;;6299752;28;20481;-57
2021/05/23 12:44:01;;;;;;;1.33;0.50;;;17.70;81.70;;;;;;6295083;28;20814;-57
2021/05/23 12:47:12;;;;;;;1.17;0.60;;;17.70;82.70;;;;;;6305344;28;20469;-57
2021/05/23 12:50:16;;;;;;;0.73;0.50;;;17.90;79.40;;;;;;6326003;28;20449;-57
2021/05/23 12:53:23;;;;;;;2.00;0.70;;;18.00;79.00;;;;;;6324957;28;20461;-58
2021/05/23 12:56:29;;;;;;;0.70;0.40;;;18.30;78.50;;;;;;6325693;28;20452;-57
2021/05/23 12:59:37;;;;;;;0.80;0.30;;;18.70;76.70;;;;;;6324660;28;20487;-58
2021/05/23 13:02:40;;;;;;;0.50;0.30;;;19.20;75.80;;;;;;6325539;28;20467;-58
2021/05/23 13:06:00;;;;;;;0.50;0.30;;;19.50;71.50;;;;;;6312657;28;20254;-57
2021/05/23 13:09:04;;;;;;;0.50;0.27;;;19.50;70.80;;;;;;6275277;28;20228;-57
2021/05/23 13:12:13;;;;;;;0.50;0.30;;;19.50;68.00;;;;;;6279847;28;20227;-58
2021/05/23 13:15:16;;;;;;;0.60;0.40;;;19.50;70.20;;;;;;6298926;28;20237;-57
2021/05/23 13:18:28;;;;;;;0.80;0.30;;;19.50;68.30;;;;;;6296216;28;20243;-57
2021/05/23 13:21:51;;;;;;;1.43;0.33;;;19.60;68.90;;;;;;6295456;28;20292;-57
2021/05/23 13:24:53;;;;;;;0.90;0.40;;;19.80;67.00;;;;;;6295524;28;20555;-58
2021/05/23 13:27:58;;;;;;;0.53;0.37;;;19.90;67.70;;;;;;6295945;28;20421;-57
2021/05/23 13:31:01;;;;;;;0.57;0.33;;;20.00;64.90;;;;;;6295788;28;20226;-57
2021/05/23 13:34:04;;;;;;;0.50;0.20;;;20.00;64.00;;;;;;6298627;28;20551;-57
2021/05/23 13:37:07;;;;;;;0.60;0.33;;;20.00;63.40;;;;;;6299235;28;20237;-58
2021/05/23 13:40:11;;;;;;;0.40;0.30;;;20.00;63.40;;;;;;6299624;28;20238;-69
2021/05/23 13:43:14;;;;;;;3.03;0.57;;;20.00;63.30;;;;;;6299100;28;20228;-57
2021/05/23 13:46:17;;;;;;;1.20;0.63;;;19.90;61.00;;;;;;6293133;28;20230;-58
2021/05/23 13:49:21;;;;;;;0.50;0.30;;;19.90;63.30;;;;;;6323052;28;20694;-61
2021/05/23 13:52:23;;;;;;;0.50;0.30;;;19.80;61.00;;;;;;6324255;28;20569;-69
2021/05/23 13:55:26;;;;;;;0.50;0.40;;;19.40;61.10;;;;;;6324164;28;20222;-69
2021/05/23 13:58:30;;;;;;;1.77;0.27;;;19.00;61.90;;;;;;6323953;28;20236;-57
2021/05/23 14:01:33;;;;;;;0.57;0.50;;;18.70;63.10;;;;;;6323935;28;20673;-61
2021/05/23 14:04:37;;;;;;;1.33;0.30;;;18.50;63.00;;;;;;6323699;28;20472;-61
2021/05/23 14:07:39;;;;;;;0.50;0.40;;;18.50;64.00;;;;;;6279097;28;20481;-60
2021/05/23 14:10:43;;;;;;;0.50;0.40;;;18.40;64.30;;;;;;6274012;28;20233;-68
2021/05/23 14:13:46;;;;;;;0.50;0.40;;;18.40;64.30;;;;;;6292836;28;20469;-68
2021/05/23 14:16:49;;;;;;;0.60;0.37;;;18.30;64.90;;;;;;6298455;28;20988;-61
2021/05/23 14:19:52;;;;;;;1.53;0.30;;;18.20;65.60;;;;;;6298819;28;20473;-61
2021/05/23 14:22:55;;;;;;;0.53;0.50;;;18.20;64.40;;;;;;6298361;28;20457;-61
2021/05/23 14:26:06;;;;;;;1.17;0.40;;;18.20;63.00;;;;;;6298869;28;20491;-61
2021/05/23 14:29:10;;;;;;;0.50;0.30;;;18.30;64.70;;;;;;6298060;28;20473;-60
2021/05/23 14:32:13;;;;;;;1.33;0.40;;;18.30;63.80;;;;;;6298541;28;20811;-56
2021/05/23 14:35:18;;;;;;;0.50;0.30;;;18.40;64.10;;;;;;6298541;28;21004;-68
2021/05/23 14:38:21;;;;;;;0.60;0.30;;;18.40;64.70;;;;;;6298692;28;20449;-57
2021/05/23 14:41:24;;;;;;;0.70;0.37;;;18.30;63.70;;;;;;6298344;28;20503;-60
2021/05/23 14:44:28;;;;;;;0.97;0.87;;;18.20;64.90;;;;;;6304410;28;20441;-60
2021/05/23 14:47:31;;;;;;;1.20;0.40;;;18.20;65.60;;;;;;6307684;28;20447;-60
2021/05/23 14:50:36;;;;;;;2.00;0.50;;;18.20;63.70;;;;;;6318466;28;20460;-69
2021/05/23 14:53:39;;;;;;;0.50;0.33;;;18.00;64.00;;;;;;6323765;28;20456;-60
2021/05/23 14:56:41;;;;;;;0.60;0.40;;;17.90;65.00;;;;;;6323262;28;20464;-61
2021/05/23 14:59:45;;;;;;;0.60;0.40;;;17.90;65.50;;;;;;6323502;28;20479;-67
2021/05/23 15:02:50;;;;;;;1.23;0.43;;;17.80;65.00;;;;;;6323048;28;20469;-68
2021/05/23 15:05:52;;;;;;;1.33;0.53;;;17.80;64.80;;;;;;6310237;28;20801;-61
2021/05/23 15:08:55;;;;;;;0.93;0.80;;;17.80;64.50;;;;;;6278258;28;20478;-57
2021/05/23 15:11:58;;;;;;;1.23;1.13;;;17.70;74.00;;;;;;6281955;28;20956;-61
2021/05/23 15:15:02;;;;;;;1.00;0.90;;;17.60;86.80;;;;;;6302432;28;20465;-57
2021/05/23 15:18:05;;;;;;;1.63;1.00;;;17.40;90.60;;;;;;6302358;28;20810;-57
2021/05/23 15:21:08;;;;;;;1.40;1.23;;;17.30;91.60;;;;;;6302447;28;20473;-61
2021/05/23 15:24:12;;;;;;;1.30;1.20;;;17.10;92.60;;;;;;6302468;28;20508;-61
2021/05/23 15:30:51;;;;;;;1.50;1.40;;;16.90;94.30;;;;;;6301955;28;21272;-57
2021/05/23 15:33:53;;;;;;;3.13;1.23;;;16.90;95.00;;;;;;6302005;28;20474;-57
2021/05/23 15:36:56;;;;;;;1.67;1.33;;;17.00;95.20;;;;;;6302271;28;20469;-61
2021/05/23 15:39:59;;;;;;;2.33;1.63;;;17.00;95.10;;;;;;6301683;28;20480;-60
2021/05/23 15:43:02;;;;;;;1.30;1.20;;;16.90;95.40;;;;;;6301632;28;20473;-60
2021/05/23 15:46:06;;;;;;;1.40;1.30;;;17.00;95.60;;;;;;6301913;28;20500;-68
2021/05/23 15:49:09;;;;;;;1.50;1.40;;;17.10;95.30;;;;;;6324243;28;20478;-68
2021/05/23 15:52:12;;;;;;;2.60;1.27;;;17.00;95.10;;;;;;6327051;28;20476;-68
2021/05/23 15:55:15;;;;;;;1.53;1.43;;;17.10;95.00;;;;;;6317204;28;20769;-61
2021/05/23 15:58:17;;;;;;;1.13;1.10;;;17.10;94.70;;;;;;6326794;28;20472;-60
2021/05/23 16:01:21;;;;;;;1.63;1.50;;;17.20;94.60;;;;;;6326099;28;20560;-60
2021/05/23 16:04:24;;;;;;;1.13;1.03;;;17.10;94.60;;;;;;6326292;28;20476;-61